sensor_id;sensor_type;location;lat;lon;timestamp;P1;durP1;ratioP1;P2;durP2;ratioP2
25511;SDS011;13414;44.534;18.700;2023-07-16T00:01:55;25.88;;;23.15;;
25511;SDS011;13414;44.534;18.700;2023-07-16T00:04:23;25.98;;;23.35;;
25511;SDS011;13414;44.534;18.700;2023-07-16T00:06:51;27.35;;;24.70;;
25511;SDS011;13414;44.534;18.700;2023-07-16T00:09:19;27.90;;;24.15;;
25511;SDS011;13414;44.534;18.700;2023-07-16T00:11:46;26.13;;;23.63;;
25511;SDS011;13414;44.534;18.700;2023-07-16T00:14:13;26.52;;;23.80;;
25511;SDS011;13414;44.534;18.700;2023-07-16T00:16:40;26.73;;;24.30;;
25511;SDS011;13414;44.534;18.700;2023-07-16T00:19:09;27.25;;;24.40;;
25511;SDS011;13414;44.534;18.700;2023-07-16T00:21:36;25.88;;;23.25;;
25511;SDS011;13414;44.534;18.700;2023-07-16T00:24:05;27.73;;;25.02;;
25511;SDS011;13414;44.534;18.700;2023-07-16T00:26:32;27.42;;;24.85;;
25511;SDS011;13414;44.534;18.700;2023-07-16T00:29:01;28.58;;;25.67;;
25511;SDS011;13414;44.534;18.700;2023-07-16T00:31:28;26.77;;;24.08;;
25511;SDS011;13414;44.534;18.700;2023-07-16T00:33:55;28.83;;;25.65;;
25511;SDS011;13414;44.534;18.700;2023-07-16T00:36:22;30.42;;;27.52;;
25511;SDS011;13414;44.534;18.700;2023-07-16T00:38:50;29.45;;;26.40;;
25511;SDS011;13414;44.534;18.700;2023-07-16T00:41:18;36.55;;;32.72;;
25511;SDS011;13414;44.534;18.700;2023-07-16T00:43:46;32.22;;;29.02;;
25511;SDS011;13414;44.534;18.700;2023-07-16T00:46:13;27.50;;;24.73;;
25511;SDS011;13414;44.534;18.700;2023-07-16T00:48:40;27.23;;;24.55;;
25511;SDS011;13414;44.534;18.700;2023-07-16T00:51:08;25.90;;;23.42;;
25511;SDS011;13414;44.534;18.700;2023-07-16T00:53:36;25.58;;;23.17;;
25511;SDS011;13414;44.534;18.700;2023-07-16T00:56:03;27.27;;;24.65;;
25511;SDS011;13414;44.534;18.700;2023-07-16T00:58:33;27.15;;;24.35;;
25511;SDS011;13414;44.534;18.700;2023-07-16T01:01:00;26.45;;;23.95;;
25511;SDS011;13414;44.534;18.700;2023-07-16T01:03:28;28.80;;;24.80;;
25511;SDS011;13414;44.534;18.700;2023-07-16T01:05:57;27.52;;;24.83;;
25511;SDS011;13414;44.534;18.700;2023-07-16T01:08:32;26.77;;;24.05;;
25511;SDS011;13414;44.534;18.700;2023-07-16T01:11:13;26.20;;;23.60;;
25511;SDS011;13414;44.534;18.700;2023-07-16T01:13:42;26.98;;;24.38;;
25511;SDS011;13414;44.534;18.700;2023-07-16T01:16:17;28.02;;;25.30;;
25511;SDS011;13414;44.534;18.700;2023-07-16T01:18:46;26.85;;;24.35;;
25511;SDS011;13414;44.534;18.700;2023-07-16T01:21:13;28.17;;;25.30;;
25511;SDS011;13414;44.534;18.700;2023-07-16T01:23:54;28.42;;;25.63;;
25511;SDS011;13414;44.534;18.700;2023-07-16T01:29:36;28.52;;;25.63;;
25511;SDS011;13414;44.534;18.700;2023-07-16T01:32:05;28.85;;;26.05;;
25511;SDS011;13414;44.534;18.700;2023-07-16T01:34:36;29.70;;;26.67;;
25511;SDS011;13414;44.534;18.700;2023-07-16T01:37:03;28.80;;;25.92;;
25511;SDS011;13414;44.534;18.700;2023-07-16T01:39:31;26.70;;;23.88;;
25511;SDS011;13414;44.534;18.700;2023-07-16T01:41:59;28.63;;;25.83;;
25511;SDS011;13414;44.534;18.700;2023-07-16T01:44:26;28.10;;;25.13;;
25511;SDS011;13414;44.534;18.700;2023-07-16T01:47:03;27.42;;;24.58;;
25511;SDS011;13414;44.534;18.700;2023-07-16T01:49:34;27.95;;;25.00;;
25511;SDS011;13414;44.534;18.700;2023-07-16T01:52:02;27.60;;;24.90;;
25511;SDS011;13414;44.534;18.700;2023-07-16T01:54:30;27.45;;;24.67;;
25511;SDS011;13414;44.534;18.700;2023-07-16T01:56:57;28.05;;;25.13;;
25511;SDS011;13414;44.534;18.700;2023-07-16T01:59:24;27.83;;;25.02;;
25511;SDS011;13414;44.534;18.700;2023-07-16T02:01:55;27.75;;;24.83;;
25511;SDS011;13414;44.534;18.700;2023-07-16T02:04:23;26.95;;;24.27;;
25511;SDS011;13414;44.534;18.700;2023-07-16T02:06:51;26.00;;;23.35;;
25511;SDS011;13414;44.534;18.700;2023-07-16T02:09:22;27.83;;;25.10;;
25511;SDS011;13414;44.534;18.700;2023-07-16T02:11:50;27.35;;;24.75;;
25511;SDS011;13414;44.534;18.700;2023-07-16T02:14:17;29.63;;;26.58;;
25511;SDS011;13414;44.534;18.700;2023-07-16T02:16:45;29.02;;;26.02;;
25511;SDS011;13414;44.534;18.700;2023-07-16T02:19:13;27.73;;;25.15;;
25511;SDS011;13414;44.534;18.700;2023-07-16T02:21:41;27.90;;;25.20;;
25511;SDS011;13414;44.534;18.700;2023-07-16T02:24:09;28.60;;;25.63;;
25511;SDS011;13414;44.534;18.700;2023-07-16T02:26:36;29.10;;;26.13;;
25511;SDS011;13414;44.534;18.700;2023-07-16T02:29:04;29.25;;;26.38;;
25511;SDS011;13414;44.534;18.700;2023-07-16T02:31:34;28.20;;;25.35;;
25511;SDS011;13414;44.534;18.700;2023-07-16T02:34:01;27.65;;;25.00;;
25511;SDS011;13414;44.534;18.700;2023-07-16T02:36:32;27.10;;;24.40;;
25511;SDS011;13414;44.534;18.700;2023-07-16T02:39:00;27.33;;;24.70;;
25511;SDS011;13414;44.534;18.700;2023-07-16T02:41:29;26.88;;;24.17;;
25511;SDS011;13414;44.534;18.700;2023-07-16T02:44:00;28.35;;;25.35;;
25511;SDS011;13414;44.534;18.700;2023-07-16T02:46:28;27.73;;;24.85;;
25511;SDS011;13414;44.534;18.700;2023-07-16T02:48:55;27.92;;;24.92;;
25511;SDS011;13414;44.534;18.700;2023-07-16T02:51:22;28.15;;;25.23;;
25511;SDS011;13414;44.534;18.700;2023-07-16T02:53:50;28.65;;;25.67;;
25511;SDS011;13414;44.534;18.700;2023-07-16T02:56:19;28.80;;;25.95;;
25511;SDS011;13414;44.534;18.700;2023-07-16T02:58:46;28.55;;;25.73;;
25511;SDS011;13414;44.534;18.700;2023-07-16T03:01:14;30.98;;;25.83;;
25511;SDS011;13414;44.534;18.700;2023-07-16T03:03:41;27.85;;;25.08;;
25511;SDS011;13414;44.534;18.700;2023-07-16T03:06:09;27.65;;;24.85;;
25511;SDS011;13414;44.534;18.700;2023-07-16T03:08:37;28.42;;;25.48;;
25511;SDS011;13414;44.534;18.700;2023-07-16T03:11:04;27.88;;;24.92;;
25511;SDS011;13414;44.534;18.700;2023-07-16T03:13:32;25.95;;;23.55;;
25511;SDS011;13414;44.534;18.700;2023-07-16T03:16:00;27.75;;;25.10;;
25511;SDS011;13414;44.534;18.700;2023-07-16T03:18:27;26.83;;;24.17;;
25511;SDS011;13414;44.534;18.700;2023-07-16T03:20:56;27.40;;;24.45;;
25511;SDS011;13414;44.534;18.700;2023-07-16T03:23:24;25.45;;;22.85;;
25511;SDS011;13414;44.534;18.700;2023-07-16T03:25:51;29.17;;;24.20;;
25511;SDS011;13414;44.534;18.700;2023-07-16T03:28:19;26.60;;;24.00;;
25511;SDS011;13414;44.534;18.700;2023-07-16T03:30:48;25.60;;;22.83;;
25511;SDS011;13414;44.534;18.700;2023-07-16T03:33:18;26.92;;;24.30;;
25511;SDS011;13414;44.534;18.700;2023-07-16T03:35:46;26.83;;;24.27;;
25511;SDS011;13414;44.534;18.700;2023-07-16T03:38:17;26.48;;;23.90;;
25511;SDS011;13414;44.534;18.700;2023-07-16T03:40:46;27.23;;;24.45;;
25511;SDS011;13414;44.534;18.700;2023-07-16T03:43:14;27.42;;;24.88;;
25511;SDS011;13414;44.534;18.700;2023-07-16T03:45:42;26.02;;;23.63;;
25511;SDS011;13414;44.534;18.700;2023-07-16T03:48:11;25.88;;;23.38;;
25511;SDS011;13414;44.534;18.700;2023-07-16T03:50:39;26.58;;;22.70;;
25511;SDS011;13414;44.534;18.700;2023-07-16T03:53:06;25.67;;;22.58;;
25511;SDS011;13414;44.534;18.700;2023-07-16T03:55:34;25.50;;;22.90;;
25511;SDS011;13414;44.534;18.700;2023-07-16T03:58:01;26.15;;;23.67;;
25511;SDS011;13414;44.534;18.700;2023-07-16T04:00:29;26.90;;;24.40;;
25511;SDS011;13414;44.534;18.700;2023-07-16T04:02:57;25.10;;;22.75;;
25511;SDS011;13414;44.534;18.700;2023-07-16T04:05:26;24.02;;;21.15;;
25511;SDS011;13414;44.534;18.700;2023-07-16T04:07:53;22.48;;;20.15;;
25511;SDS011;13414;44.534;18.700;2023-07-16T04:10:20;22.27;;;19.42;;
25511;SDS011;13414;44.534;18.700;2023-07-16T04:12:48;20.83;;;18.50;;
25511;SDS011;13414;44.534;18.700;2023-07-16T04:15:15;21.13;;;19.02;;
25511;SDS011;13414;44.534;18.700;2023-07-16T04:17:42;20.02;;;17.15;;
25511;SDS011;13414;44.534;18.700;2023-07-16T04:20:10;19.33;;;17.20;;
25511;SDS011;13414;44.534;18.700;2023-07-16T04:22:39;18.38;;;16.52;;
25511;SDS011;13414;44.534;18.700;2023-07-16T04:25:07;18.33;;;16.58;;
25511;SDS011;13414;44.534;18.700;2023-07-16T04:27:34;19.38;;;16.52;;
25511;SDS011;13414;44.534;18.700;2023-07-16T04:30:02;18.13;;;16.23;;
25511;SDS011;13414;44.534;18.700;2023-07-16T04:32:31;19.40;;;16.83;;
25511;SDS011;13414;44.534;18.700;2023-07-16T04:34:58;16.92;;;15.18;;
25511;SDS011;13414;44.534;18.700;2023-07-16T04:37:26;15.30;;;13.93;;
25511;SDS011;13414;44.534;18.700;2023-07-16T04:39:54;21.00;;;16.48;;
25511;SDS011;13414;44.534;18.700;2023-07-16T04:42:22;16.17;;;14.02;;
25511;SDS011;13414;44.534;18.700;2023-07-16T04:44:49;17.50;;;13.82;;
25511;SDS011;13414;44.534;18.700;2023-07-16T04:47:16;17.08;;;13.38;;
25511;SDS011;13414;44.534;18.700;2023-07-16T04:49:43;15.40;;;13.80;;
25511;SDS011;13414;44.534;18.700;2023-07-16T04:52:11;14.60;;;12.88;;
25511;SDS011;13414;44.534;18.700;2023-07-16T04:54:39;15.75;;;14.07;;
25511;SDS011;13414;44.534;18.700;2023-07-16T04:57:08;14.65;;;13.10;;
25511;SDS011;13414;44.534;18.700;2023-07-16T04:59:35;17.80;;;13.90;;
25511;SDS011;13414;44.534;18.700;2023-07-16T05:02:04;19.92;;;15.00;;
25511;SDS011;13414;44.534;18.700;2023-07-16T05:04:32;17.50;;;15.70;;
25511;SDS011;13414;44.534;18.700;2023-07-16T05:07:00;18.20;;;14.40;;
25511;SDS011;13414;44.534;18.700;2023-07-16T05:09:28;17.63;;;14.25;;
25511;SDS011;13414;44.534;18.700;2023-07-16T05:11:55;17.55;;;15.27;;
25511;SDS011;13414;44.534;18.700;2023-07-16T05:14:26;16.02;;;13.98;;
25511;SDS011;13414;44.534;18.700;2023-07-16T05:16:54;16.73;;;13.70;;
25511;SDS011;13414;44.534;18.700;2023-07-16T05:19:22;14.98;;;13.45;;
25511;SDS011;13414;44.534;18.700;2023-07-16T05:21:49;18.20;;;13.32;;
25511;SDS011;13414;44.534;18.700;2023-07-16T05:24:17;16.17;;;13.50;;
25511;SDS011;13414;44.534;18.700;2023-07-16T05:26:44;14.77;;;13.27;;
25511;SDS011;13414;44.534;18.700;2023-07-16T05:29:11;14.32;;;12.93;;
25511;SDS011;13414;44.534;18.700;2023-07-16T05:31:40;16.55;;;13.98;;
25511;SDS011;13414;44.534;18.700;2023-07-16T05:34:09;15.35;;;13.85;;
25511;SDS011;13414;44.534;18.700;2023-07-16T05:36:37;14.70;;;13.20;;
25511;SDS011;13414;44.534;18.700;2023-07-16T05:39:04;16.67;;;15.02;;
25511;SDS011;13414;44.534;18.700;2023-07-16T05:41:31;16.63;;;14.23;;
25511;SDS011;13414;44.534;18.700;2023-07-16T05:43:58;15.00;;;13.63;;
25511;SDS011;13414;44.534;18.700;2023-07-16T05:46:26;14.30;;;13.10;;
25511;SDS011;13414;44.534;18.700;2023-07-16T05:48:54;15.60;;;13.82;;
25511;SDS011;13414;44.534;18.700;2023-07-16T05:51:21;15.23;;;13.82;;
25511;SDS011;13414;44.534;18.700;2023-07-16T05:53:49;19.50;;;16.33;;
25511;SDS011;13414;44.534;18.700;2023-07-16T05:56:16;15.45;;;13.95;;
25511;SDS011;13414;44.534;18.700;2023-07-16T05:58:44;15.70;;;13.93;;
25511;SDS011;13414;44.534;18.700;2023-07-16T06:01:11;15.93;;;14.32;;
25511;SDS011;13414;44.534;18.700;2023-07-16T06:03:38;17.67;;;14.85;;
25511;SDS011;13414;44.534;18.700;2023-07-16T06:06:08;16.08;;;14.57;;
25511;SDS011;13414;44.534;18.700;2023-07-16T06:08:36;19.58;;;15.25;;
25511;SDS011;13414;44.534;18.700;2023-07-16T06:11:03;17.58;;;15.80;;
25511;SDS011;13414;44.534;18.700;2023-07-16T06:13:30;17.48;;;15.63;;
25511;SDS011;13414;44.534;18.700;2023-07-16T06:15:58;18.52;;;15.98;;
25511;SDS011;13414;44.534;18.700;2023-07-16T06:18:25;18.05;;;16.35;;
25511;SDS011;13414;44.534;18.700;2023-07-16T06:20:52;19.08;;;16.73;;
25511;SDS011;13414;44.534;18.700;2023-07-16T06:23:22;21.05;;;17.95;;
25511;SDS011;13414;44.534;18.700;2023-07-16T06:25:53;19.20;;;17.20;;
25511;SDS011;13414;44.534;18.700;2023-07-16T06:28:21;20.30;;;17.50;;
25511;SDS011;13414;44.534;18.700;2023-07-16T06:30:49;19.33;;;17.42;;
25511;SDS011;13414;44.534;18.700;2023-07-16T06:33:17;19.85;;;17.95;;
25511;SDS011;13414;44.534;18.700;2023-07-16T06:35:45;20.73;;;17.00;;
25511;SDS011;13414;44.534;18.700;2023-07-16T06:38:12;24.75;;;18.15;;
25511;SDS011;13414;44.534;18.700;2023-07-16T06:40:46;19.92;;;18.00;;
25511;SDS011;13414;44.534;18.700;2023-07-16T06:43:14;20.10;;;18.23;;
25511;SDS011;13414;44.534;18.700;2023-07-16T06:45:42;20.50;;;18.33;;
25511;SDS011;13414;44.534;18.700;2023-07-16T06:48:09;21.23;;;18.98;;
25511;SDS011;13414;44.534;18.700;2023-07-16T06:50:36;20.98;;;18.83;;
25511;SDS011;13414;44.534;18.700;2023-07-16T06:53:04;20.98;;;18.98;;
25511;SDS011;13414;44.534;18.700;2023-07-16T06:55:31;22.10;;;19.83;;
25511;SDS011;13414;44.534;18.700;2023-07-16T06:58:00;21.38;;;19.30;;
25511;SDS011;13414;44.534;18.700;2023-07-16T07:00:28;24.15;;;20.13;;
25511;SDS011;13414;44.534;18.700;2023-07-16T07:02:55;22.17;;;19.85;;
25511;SDS011;13414;44.534;18.700;2023-07-16T07:05:23;22.85;;;20.60;;
25511;SDS011;13414;44.534;18.700;2023-07-16T07:07:50;23.52;;;21.02;;
25511;SDS011;13414;44.534;18.700;2023-07-16T07:10:17;25.13;;;21.27;;
25511;SDS011;13414;44.534;18.700;2023-07-16T07:12:45;23.70;;;21.30;;
25511;SDS011;13414;44.534;18.700;2023-07-16T07:15:13;23.73;;;21.33;;
25511;SDS011;13414;44.534;18.700;2023-07-16T07:17:40;24.95;;;21.80;;
25511;SDS011;13414;44.534;18.700;2023-07-16T07:20:12;23.30;;;20.73;;
25511;SDS011;13414;44.534;18.700;2023-07-16T07:22:40;26.98;;;21.92;;
25511;SDS011;13414;44.534;18.700;2023-07-16T07:25:07;25.73;;;21.30;;
25511;SDS011;13414;44.534;18.700;2023-07-16T07:27:35;23.27;;;20.52;;
25511;SDS011;13414;44.534;18.700;2023-07-16T07:30:02;32.53;;;23.13;;
25511;SDS011;13414;44.534;18.700;2023-07-16T07:32:31;25.42;;;21.27;;
25511;SDS011;13414;44.534;18.700;2023-07-16T07:34:59;25.95;;;22.15;;
25511;SDS011;13414;44.534;18.700;2023-07-16T07:37:26;28.20;;;21.17;;
25511;SDS011;13414;44.534;18.700;2023-07-16T07:39:53;26.67;;;22.25;;
25511;SDS011;13414;44.534;18.700;2023-07-16T07:42:21;27.27;;;22.10;;
25511;SDS011;13414;44.534;18.700;2023-07-16T07:44:48;27.75;;;22.52;;
25511;SDS011;13414;44.534;18.700;2023-07-16T07:47:16;27.65;;;21.77;;
25511;SDS011;13414;44.534;18.700;2023-07-16T07:49:45;28.55;;;22.83;;
25511;SDS011;13414;44.534;18.700;2023-07-16T07:52:12;24.40;;;21.90;;
25511;SDS011;13414;44.534;18.700;2023-07-16T07:54:39;24.10;;;21.55;;
25511;SDS011;13414;44.534;18.700;2023-07-16T07:57:07;27.10;;;21.20;;
25511;SDS011;13414;44.534;18.700;2023-07-16T07:59:34;24.70;;;21.88;;
25511;SDS011;13414;44.534;18.700;2023-07-16T08:02:01;25.13;;;20.92;;
25511;SDS011;13414;44.534;18.700;2023-07-16T08:04:29;24.02;;;20.98;;
25511;SDS011;13414;44.534;18.700;2023-07-16T08:06:58;22.60;;;20.13;;
25511;SDS011;13414;44.534;18.700;2023-07-16T08:09:26;23.25;;;20.83;;
25511;SDS011;13414;44.534;18.700;2023-07-16T08:11:53;24.58;;;21.20;;
25511;SDS011;13414;44.534;18.700;2023-07-16T08:14:20;23.33;;;20.83;;
25511;SDS011;13414;44.534;18.700;2023-07-16T08:16:48;23.23;;;20.92;;
25511;SDS011;13414;44.534;18.700;2023-07-16T08:19:15;24.67;;;22.05;;
25511;SDS011;13414;44.534;18.700;2023-07-16T08:21:43;24.50;;;21.08;;
25511;SDS011;13414;44.534;18.700;2023-07-16T08:24:11;22.55;;;20.27;;
25511;SDS011;13414;44.534;18.700;2023-07-16T08:26:39;23.67;;;20.60;;
25511;SDS011;13414;44.534;18.700;2023-07-16T08:29:06;24.13;;;20.80;;
25511;SDS011;13414;44.534;18.700;2023-07-16T08:31:33;21.58;;;19.27;;
25511;SDS011;13414;44.534;18.700;2023-07-16T08:34:01;22.30;;;19.02;;
25511;SDS011;13414;44.534;18.700;2023-07-16T08:36:29;21.55;;;18.42;;
25511;SDS011;13414;44.534;18.700;2023-07-16T08:38:57;20.95;;;18.65;;
25511;SDS011;13414;44.534;18.700;2023-07-16T08:41:25;16.75;;;15.00;;
25511;SDS011;13414;44.534;18.700;2023-07-16T08:43:53;16.80;;;15.05;;
25511;SDS011;13414;44.534;18.700;2023-07-16T08:46:20;20.88;;;18.67;;
25511;SDS011;13414;44.534;18.700;2023-07-16T08:48:47;17.27;;;15.48;;
25511;SDS011;13414;44.534;18.700;2023-07-16T08:51:15;13.85;;;12.45;;
25511;SDS011;13414;44.534;18.700;2023-07-16T08:53:43;15.93;;;14.40;;
25511;SDS011;13414;44.534;18.700;2023-07-16T08:56:10;15.68;;;12.73;;
25511;SDS011;13414;44.534;18.700;2023-07-16T08:58:39;17.17;;;12.52;;
25511;SDS011;13414;44.534;18.700;2023-07-16T09:01:09;15.07;;;13.32;;
25511;SDS011;13414;44.534;18.700;2023-07-16T09:03:38;15.27;;;13.32;;
25511;SDS011;13414;44.534;18.700;2023-07-16T09:06:05;17.27;;;14.18;;
25511;SDS011;13414;44.534;18.700;2023-07-16T09:08:33;18.48;;;14.55;;
25511;SDS011;13414;44.534;18.700;2023-07-16T09:11:00;21.13;;;15.95;;
25511;SDS011;13414;44.534;18.700;2023-07-16T09:13:28;19.38;;;15.40;;
25511;SDS011;13414;44.534;18.700;2023-07-16T09:15:58;18.13;;;14.00;;
25511;SDS011;13414;44.534;18.700;2023-07-16T09:18:26;16.30;;;14.80;;
25511;SDS011;13414;44.534;18.700;2023-07-16T09:20:54;15.30;;;13.80;;
25511;SDS011;13414;44.534;18.700;2023-07-16T09:23:23;18.20;;;14.38;;
25511;SDS011;13414;44.534;18.700;2023-07-16T09:25:53;17.13;;;12.80;;
25511;SDS011;13414;44.534;18.700;2023-07-16T09:28:20;17.52;;;13.90;;
25511;SDS011;13414;44.534;18.700;2023-07-16T09:30:48;17.67;;;13.50;;
25511;SDS011;13414;44.534;18.700;2023-07-16T09:33:18;15.20;;;13.48;;
25511;SDS011;13414;44.534;18.700;2023-07-16T09:35:47;18.65;;;15.43;;
25511;SDS011;13414;44.534;18.700;2023-07-16T09:38:15;17.52;;;14.52;;
25511;SDS011;13414;44.534;18.700;2023-07-16T09:40:43;16.15;;;12.95;;
25511;SDS011;13414;44.534;18.700;2023-07-16T09:43:11;15.55;;;12.77;;
25511;SDS011;13414;44.534;18.700;2023-07-16T09:45:39;16.13;;;13.48;;
25511;SDS011;13414;44.534;18.700;2023-07-16T09:48:07;15.35;;;13.52;;
25511;SDS011;13414;44.534;18.700;2023-07-16T09:50:36;17.98;;;16.02;;
25511;SDS011;13414;44.534;18.700;2023-07-16T09:53:05;16.98;;;15.32;;
25511;SDS011;13414;44.534;18.700;2023-07-16T09:55:34;17.90;;;16.10;;
25511;SDS011;13414;44.534;18.700;2023-07-16T09:58:03;19.73;;;17.73;;
25511;SDS011;13414;44.534;18.700;2023-07-16T10:00:34;19.65;;;17.67;;
25511;SDS011;13414;44.534;18.700;2023-07-16T10:03:05;17.88;;;16.17;;
25511;SDS011;13414;44.534;18.700;2023-07-16T10:05:36;16.20;;;14.60;;
25511;SDS011;13414;44.534;18.700;2023-07-16T10:08:04;19.10;;;17.10;;
25511;SDS011;13414;44.534;18.700;2023-07-16T10:10:42;21.10;;;19.08;;
25511;SDS011;13414;44.534;18.700;2023-07-16T10:13:11;16.20;;;13.30;;
25511;SDS011;13414;44.534;18.700;2023-07-16T10:15:39;16.23;;;13.93;;
25511;SDS011;13414;44.534;18.700;2023-07-16T10:18:22;14.63;;;12.95;;
25511;SDS011;13414;44.534;18.700;2023-07-16T10:20:52;16.13;;;13.18;;
25511;SDS011;13414;44.534;18.700;2023-07-16T10:23:19;15.77;;;13.82;;
25511;SDS011;13414;44.534;18.700;2023-07-16T10:28:31;18.35;;;13.75;;
25511;SDS011;13414;44.534;18.700;2023-07-16T10:30:59;16.25;;;12.07;;
25511;SDS011;13414;44.534;18.700;2023-07-16T10:33:26;13.65;;;11.32;;
25511;SDS011;13414;44.534;18.700;2023-07-16T10:35:56;23.20;;;18.08;;
25511;SDS011;13414;44.534;18.700;2023-07-16T10:38:24;15.00;;;12.88;;
25511;SDS011;13414;44.534;18.700;2023-07-16T10:40:51;13.45;;;11.68;;
25511;SDS011;13414;44.534;18.700;2023-07-16T10:43:19;23.02;;;15.18;;
25511;SDS011;13414;44.534;18.700;2023-07-16T10:45:47;16.60;;;13.57;;
25511;SDS011;13414;44.534;18.700;2023-07-16T10:48:16;15.23;;;13.63;;
25511;SDS011;13414;44.534;18.700;2023-07-16T10:50:44;19.35;;;13.93;;
25511;SDS011;13414;44.534;18.700;2023-07-16T10:53:12;18.02;;;13.88;;
25511;SDS011;13414;44.534;18.700;2023-07-16T10:55:40;13.63;;;10.02;;
25511;SDS011;13414;44.534;18.700;2023-07-16T10:58:08;17.55;;;11.23;;
25511;SDS011;13414;44.534;18.700;2023-07-16T11:00:36;16.30;;;12.25;;
25511;SDS011;13414;44.534;18.700;2023-07-16T11:03:05;17.67;;;14.77;;
25511;SDS011;13414;44.534;18.700;2023-07-16T11:05:33;17.73;;;15.05;;
25511;SDS011;13414;44.534;18.700;2023-07-16T11:08:01;21.27;;;18.33;;
25511;SDS011;13414;44.534;18.700;2023-07-16T11:10:30;12.77;;;10.65;;
25511;SDS011;13414;44.534;18.700;2023-07-16T11:12:57;10.55;;;8.77;;
25511;SDS011;13414;44.534;18.700;2023-07-16T11:15:32;12.57;;;8.93;;
25511;SDS011;13414;44.534;18.700;2023-07-16T11:18:00;11.95;;;9.43;;
25511;SDS011;13414;44.534;18.700;2023-07-16T11:20:28;11.20;;;9.75;;
25511;SDS011;13414;44.534;18.700;2023-07-16T11:22:57;12.40;;;9.30;;
25511;SDS011;13414;44.534;18.700;2023-07-16T11:25:25;12.73;;;9.23;;
25511;SDS011;13414;44.534;18.700;2023-07-16T11:27:55;13.15;;;8.80;;
25511;SDS011;13414;44.534;18.700;2023-07-16T11:30:22;10.35;;;9.30;;
25511;SDS011;13414;44.534;18.700;2023-07-16T11:32:51;11.38;;;9.48;;
25511;SDS011;13414;44.534;18.700;2023-07-16T11:35:19;10.82;;;8.88;;
25511;SDS011;13414;44.534;18.700;2023-07-16T11:37:47;10.30;;;8.20;;
25511;SDS011;13414;44.534;18.700;2023-07-16T11:40:15;17.83;;;8.25;;
25511;SDS011;13414;44.534;18.700;2023-07-16T11:42:44;8.63;;;7.75;;
25511;SDS011;13414;44.534;18.700;2023-07-16T11:45:17;9.43;;;8.30;;
25511;SDS011;13414;44.534;18.700;2023-07-16T11:47:45;13.00;;;9.10;;
25511;SDS011;13414;44.534;18.700;2023-07-16T11:50:13;9.50;;;8.10;;
25511;SDS011;13414;44.534;18.700;2023-07-16T11:52:40;9.43;;;8.23;;
25511;SDS011;13414;44.534;18.700;2023-07-16T11:55:08;20.13;;;18.20;;
25511;SDS011;13414;44.534;18.700;2023-07-16T11:57:36;21.77;;;19.00;;
25511;SDS011;13414;44.534;18.700;2023-07-16T12:00:03;9.88;;;7.68;;
25511;SDS011;13414;44.534;18.700;2023-07-16T12:02:33;9.27;;;7.53;;
25511;SDS011;13414;44.534;18.700;2023-07-16T12:05:01;10.15;;;9.05;;
25511;SDS011;13414;44.534;18.700;2023-07-16T12:07:31;9.27;;;8.23;;
25511;SDS011;13414;44.534;18.700;2023-07-16T12:10:00;9.93;;;8.27;;
25511;SDS011;13414;44.534;18.700;2023-07-16T12:12:28;10.95;;;8.98;;
25511;SDS011;13414;44.534;18.700;2023-07-16T12:14:56;9.73;;;8.10;;
25511;SDS011;13414;44.534;18.700;2023-07-16T12:17:23;9.50;;;8.52;;
25511;SDS011;13414;44.534;18.700;2023-07-16T12:19:52;10.18;;;8.55;;
25511;SDS011;13414;44.534;18.700;2023-07-16T12:22:19;9.95;;;8.00;;
25511;SDS011;13414;44.534;18.700;2023-07-16T12:24:47;12.52;;;7.88;;
25511;SDS011;13414;44.534;18.700;2023-07-16T12:27:14;8.88;;;7.97;;
25511;SDS011;13414;44.534;18.700;2023-07-16T12:29:42;8.75;;;7.82;;
25511;SDS011;13414;44.534;18.700;2023-07-16T12:32:10;9.77;;;8.05;;
25511;SDS011;13414;44.534;18.700;2023-07-16T12:34:37;13.13;;;8.00;;
25511;SDS011;13414;44.534;18.700;2023-07-16T12:37:06;11.07;;;8.50;;
25511;SDS011;13414;44.534;18.700;2023-07-16T12:39:33;11.55;;;8.35;;
25511;SDS011;13414;44.534;18.700;2023-07-16T12:42:00;9.48;;;7.70;;
25511;SDS011;13414;44.534;18.700;2023-07-16T12:44:28;11.57;;;8.95;;
25511;SDS011;13414;44.534;18.700;2023-07-16T12:46:56;10.23;;;8.00;;
25511;SDS011;13414;44.534;18.700;2023-07-16T12:49:23;8.57;;;7.72;;
25511;SDS011;13414;44.534;18.700;2023-07-16T12:51:51;10.45;;;7.78;;
25511;SDS011;13414;44.534;18.700;2023-07-16T12:54:19;9.43;;;8.10;;
25511;SDS011;13414;44.534;18.700;2023-07-16T12:56:47;10.00;;;7.57;;
25511;SDS011;13414;44.534;18.700;2023-07-16T12:59:15;10.23;;;7.35;;
25511;SDS011;13414;44.534;18.700;2023-07-16T13:01:44;9.57;;;7.10;;
25511;SDS011;13414;44.534;18.700;2023-07-16T13:04:19;10.02;;;6.90;;
25511;SDS011;13414;44.534;18.700;2023-07-16T13:06:46;7.13;;;6.00;;
25511;SDS011;13414;44.534;18.700;2023-07-16T13:09:14;9.57;;;7.53;;
25511;SDS011;13414;44.534;18.700;2023-07-16T13:11:43;8.63;;;7.00;;
25511;SDS011;13414;44.534;18.700;2023-07-16T13:14:10;9.98;;;7.28;;
25511;SDS011;13414;44.534;18.700;2023-07-16T13:16:38;8.80;;;7.22;;
25511;SDS011;13414;44.534;18.700;2023-07-16T13:19:05;7.50;;;5.90;;
25511;SDS011;13414;44.534;18.700;2023-07-16T13:21:32;9.05;;;6.80;;
25511;SDS011;13414;44.534;18.700;2023-07-16T13:24:00;11.85;;;6.82;;
25511;SDS011;13414;44.534;18.700;2023-07-16T13:26:27;8.25;;;6.22;;
25511;SDS011;13414;44.534;18.700;2023-07-16T13:28:56;7.82;;;6.38;;
25511;SDS011;13414;44.534;18.700;2023-07-16T13:31:24;7.82;;;5.78;;
25511;SDS011;13414;44.534;18.700;2023-07-16T13:33:51;7.30;;;5.75;;
25511;SDS011;13414;44.534;18.700;2023-07-16T13:36:18;6.55;;;5.90;;
25511;SDS011;13414;44.534;18.700;2023-07-16T13:38:45;6.90;;;5.90;;
25511;SDS011;13414;44.534;18.700;2023-07-16T13:41:13;7.90;;;6.40;;
25511;SDS011;13414;44.534;18.700;2023-07-16T13:43:40;6.85;;;6.15;;
25511;SDS011;13414;44.534;18.700;2023-07-16T13:46:08;6.80;;;5.88;;
25511;SDS011;13414;44.534;18.700;2023-07-16T13:48:36;8.98;;;6.10;;
25511;SDS011;13414;44.534;18.700;2023-07-16T13:51:04;8.48;;;6.30;;
25511;SDS011;13414;44.534;18.700;2023-07-16T13:53:32;11.55;;;7.10;;
25511;SDS011;13414;44.534;18.700;2023-07-16T13:55:59;10.65;;;7.47;;
25511;SDS011;13414;44.534;18.700;2023-07-16T13:58:27;9.63;;;6.60;;
25511;SDS011;13414;44.534;18.700;2023-07-16T14:00:54;9.32;;;6.88;;
25511;SDS011;13414;44.534;18.700;2023-07-16T14:03:23;11.90;;;8.38;;
25511;SDS011;13414;44.534;18.700;2023-07-16T14:05:50;11.60;;;6.18;;
25511;SDS011;13414;44.534;18.700;2023-07-16T14:08:18;9.13;;;6.05;;
25511;SDS011;13414;44.534;18.700;2023-07-16T14:10:45;7.72;;;6.20;;
25511;SDS011;13414;44.534;18.700;2023-07-16T14:13:12;9.25;;;5.90;;
25511;SDS011;13414;44.534;18.700;2023-07-16T14:15:41;11.73;;;6.60;;
25511;SDS011;13414;44.534;18.700;2023-07-16T14:18:08;8.77;;;5.57;;
25511;SDS011;13414;44.534;18.700;2023-07-16T14:20:37;8.93;;;6.55;;
25511;SDS011;13414;44.534;18.700;2023-07-16T14:23:04;6.82;;;5.63;;
25511;SDS011;13414;44.534;18.700;2023-07-16T14:25:32;6.28;;;5.63;;